Time,TemperatureF,DewpointF,PressureIn,WindDirection,WindDirectionDegrees,WindSpeedMPH,WindSpeedGustMPH,Humidity,HourlyPrecipIn,Conditions,Clouds,dailyrainin,SoftwareType,DateUTC
2013-01-30 00:04:00,33.0,-99.9,29.50,North,-999,-999.0,-999.0,-999,-99.99,,,-99.99,,2013-01-30 05:04:00,
2013-01-30 00:12:00,33.0,-99.9,29.50,NW,324,8.0,10.0,-999,-99.99,,,-99.99,,2013-01-30 05:12:00,
2013-01-30 00:22:00,34.0,-99.9,29.49,North,-999,-999.0,-999.0,-999,-99.99,,,-99.99,,2013-01-30 05:22:00,
2013-01-30 00:33:00,34.0,-99.9,29.49,North,-999,-999.0,-999.0,-999,-99.99,,,-99.99,,2013-01-30 05:33:00,
2013-01-30 00:43:00,34.0,-99.9,29.48,NNW,330,10.0,12.0,-999,-99.99,,,-99.99,,2013-01-30 05:43:00,
2013-01-30 00:52:00,34.0,-99.9,29.47,North,-999,-999.0,-999.0,-999,-99.99,,,-99.99,,2013-01-30 05:52:00,
2013-01-30 01:02:00,34.0,-99.9,29.46,North,-999,-999.0,-999.0,-999,-99.99,,,-99.99,,2013-01-30 06:02:00,
2013-01-30 01:12:00,34.0,-99.9,29.46,NNW,327,11.0,12.0,-999,-99.99,,,-99.99,,2013-01-30 06:12:00,
2013-01-30 01:22:00,34.0,-99.9,29.46,North,-999,-999.0,-999.0,-999,-99.99,,,-99.99,,2013-01-30 06:22:00,
2013-01-30 01:32:00,34.0,-99.9,29.46,North,-999,-999.0,-999.0,-999,-99.99,,,-99.99,,2013-01-30 06:32:00,
2013-01-30 01:42:00,34.0,-99.9,29.46,NW,320,11.0,13.0,-999,-99.99,,,-99.99,,2013-01-30 06:42:00,
2013-01-30 01:52:00,34.0,-99.9,29.45,North,-999,-999.0,-999.0,-999,-99.99,,,-99.99,,2013-01-30 06:52:00,
2013-01-30 02:02:00,34.0,-99.9,29.45,North,-999,-999.0,-999.0,-999,-99.99,,,-99.99,,2013-01-30 07:02:00,
2013-01-30 02:12:00,34.0,-99.9,29.45,NW,323,13.0,16.0,-999,-99.99,,,-99.99,,2013-01-30 07:12:00,
2013-01-30 02:22:00,34.0,-99.9,29.45,North,-999,-999.0,-999.0,-999,-99.99,,,-99.99,,2013-01-30 07:22:00,
2013-01-30 02:32:00,34.0,-99.9,29.45,North,-999,-999.0,-999.0,-999,-99.99,,,-99.99,,2013-01-30 07:32:00,
2013-01-30 02:42:00,34.0,-99.9,29.46,NW,324,12.0,19.0,-999,-99.99,,,-99.99,,2013-01-30 07:42:00,
2013-01-30 02:52:00,34.0,-99.9,29.46,North,-999,-999.0,-999.0,-999,-99.99,,,-99.99,,2013-01-30 07:52:00,
2013-01-30 03:02:00,34.0,-99.9,29.46,North,-999,-999.0,-999.0,-999,-99.99,,,-99.99,,2013-01-30 08:02:00,
2013-01-30 03:11:00,34.0,-99.9,29.45,NNW,331,12.0,14.0,-999,-99.99,,,-99.99,,2013-01-30 08:11:00,
2013-01-30 03:22:00,34.0,-99.9,29.45,North,-999,-999.0,-999.0,-999,-99.99,,,-99.99,,2013-01-30 08:22:00,
2013-01-30 03:32:00,34.0,-99.9,29.44,North,-999,-999.0,-999.0,-999,-99.99,,,-99.99,,2013-01-30 08:32:00,
2013-01-30 03:42:00,34.0,-99.9,29.44,NNW,332,11.0,13.0,-999,-99.99,,,-99.99,,2013-01-30 08:42:00,
2013-01-30 03:52:00,34.0,-99.9,29.42,North,-999,-999.0,-999.0,-999,-99.99,,,-99.99,,2013-01-30 08:52:00,
2013-01-30 04:02:00,34.0,-99.9,29.42,North,-999,-999.0,-999.0,-999,-99.99,,,-99.99,,2013-01-30 09:02:00,
2013-01-30 04:12:00,34.0,-99.9,29.41,NNW,338,10.0,14.0,-999,-99.99,,,-99.99,,2013-01-30 09:12:00,
2013-01-30 04:22:00,34.0,-99.9,29.40,North,-999,-999.0,-999.0,-999,-99.99,,,-99.99,,2013-01-30 09:22:00,
2013-01-30 04:32:00,34.0,-99.9,29.41,North,-999,-999.0,-999.0,-999,-99.99,,,-99.99,,2013-01-30 09:32:00,
2013-01-30 04:42:00,34.0,-99.9,29.41,NNW,327,9.0,12.0,-999,-99.99,,,-99.99,,2013-01-30 09:42:00,
2013-01-30 04:52:00,34.0,-99.9,29.41,North,-999,-999.0,-999.0,-999,-99.99,,,-99.99,,2013-01-30 09:52:00,
2013-01-30 05:02:00,34.0,-99.9,29.40,North,-999,-999.0,-999.0,-999,-99.99,,,-99.99,,2013-01-30 10:02:00,
2013-01-30 05:12:00,34.0,-99.9,29.40,NW,311,11.0,13.0,-999,-99.99,,,-99.99,,2013-01-30 10:12:00,
2013-01-30 05:22:00,34.0,-99.9,29.40,North,-999,-999.0,-999.0,-999,-99.99,,,-99.99,,2013-01-30 10:22:00,
2013-01-30 05:32:00,34.0,-99.9,29.39,North,-999,-999.0,-999.0,-999,-99.99,,,-99.99,,2013-01-30 10:32:00,
2013-01-30 05:42:00,33.0,-99.9,29.38,North,-999,-999.0,-999.0,-999,-99.99,,,-99.99,,2013-01-30 10:42:00,
2013-01-30 05:52:00,34.0,-99.9,29.39,North,-999,-999.0,-999.0,-999,-99.99,,,-99.99,,2013-01-30 10:52:00,
2013-01-30 06:02:00,34.0,-99.9,29.39,North,-999,-999.0,-999.0,-999,-99.99,,,-99.99,,2013-01-30 11:02:00,
2013-01-30 06:11:00,34.0,-99.9,29.39,NW,309,8.0,11.0,-999,-99.99,,,-99.99,,2013-01-30 11:11:00,
2013-01-30 06:22:00,34.0,-99.9,29.38,North,-999,-999.0,-999.0,-999,-99.99,,,-99.99,,2013-01-30 11:22:00,
2013-01-30 06:33:00,34.0,-99.9,29.37,North,-999,-999.0,-999.0,-999,-99.99,,,-99.99,,2013-01-30 11:33:00,
2013-01-30 06:42:00,34.0,-99.9,29.37,WNW,301,13.0,18.0,-999,-99.99,,,-99.99,,2013-01-30 11:42:00,
2013-01-30 06:52:00,34.0,-99.9,29.38,North,-999,-999.0,-999.0,-999,-99.99,,,-99.99,,2013-01-30 11:52:00,
2013-01-30 07:02:00,34.0,-99.9,29.39,North,-999,-999.0,-999.0,-999,-99.99,,,-99.99,,2013-01-30 12:02:00,
2013-01-30 07:13:00,34.0,-99.9,29.39,WNW,297,14.0,17.0,-999,-99.99,,,-99.99,,2013-01-30 12:13:00,
2013-01-30 07:22:00,33.0,-99.9,29.38,North,-999,-999.0,-999.0,-999,-99.99,,,-99.99,,2013-01-30 12:22:00,
2013-01-30 07:33:00,34.0,-99.9,29.38,North,-999,-999.0,-999.0,-999,-99.99,,,-99.99,,2013-01-30 12:33:00,
2013-01-30 07:43:00,34.0,-99.9,29.39,NW,305,11.0,14.0,-999,-99.99,,,-99.99,,2013-01-30 12:43:00,
2013-01-30 08:03:00,34.0,-99.9,29.36,North,-999,-999.0,-999.0,-999,-99.99,,,-99.99,,2013-01-30 13:03:00,
2013-01-30 08:13:00,34.0,-99.9,29.36,NW,308,14.0,19.0,-999,-99.99,,,-99.99,,2013-01-30 13:13:00,
2013-01-30 08:23:00,34.0,-99.9,29.31,North,-999,-999.0,-999.0,-999,-99.99,,,-99.99,,2013-01-30 13:23:00,
2013-01-30 08:33:00,34.0,-99.9,29.35,North,-999,-999.0,-999.0,-999,-99.99,,,-99.99,,2013-01-30 13:33:00,
2013-01-30 08:43:00,34.0,-99.9,29.37,North,-999,-999.0,-999.0,-999,-99.99,,,-99.99,,2013-01-30 13:43:00,
2013-01-30 08:53:00,34.0,-99.9,29.38,North,-999,-999.0,-999.0,-999,-99.99,,,-99.99,,2013-01-30 13:53:00,
2013-01-30 09:03:00,34.0,-99.9,29.37,North,-999,-999.0,-999.0,-999,-99.99,,,-99.99,,2013-01-30 14:03:00,
2013-01-30 09:12:00,34.0,-99.9,29.37,NW,311,11.0,15.0,-999,-99.99,,,-99.99,,2013-01-30 14:12:00,
2013-01-30 09:23:00,34.0,-99.9,29.37,North,-999,-999.0,-999.0,-999,-99.99,,,-99.99,,2013-01-30 14:23:00,
2013-01-30 09:33:00,34.0,-99.9,29.37,North,-999,-999.0,-999.0,-999,-99.99,,,-99.99,,2013-01-30 14:33:00,
2013-01-30 09:43:00,34.0,-99.9,29.36,NW,314,10.0,16.0,-999,-99.99,,,-99.99,,2013-01-30 14:43:00,
2013-01-30 09:53:00,34.0,-99.9,29.36,North,-999,-999.0,-999.0,-999,-99.99,,,-99.99,,2013-01-30 14:53:00,
2013-01-30 10:04:00,33.0,-99.9,29.36,North,-999,-999.0,-999.0,-999,-99.99,,,-99.99,,2013-01-30 15:04:00,
2013-01-30 10:12:00,33.0,-99.9,29.36,NW,324,11.0,15.0,-999,-99.99,,,-99.99,,2013-01-30 15:12:00,
2013-01-30 10:24:00,33.0,-99.9,29.36,North,-999,-999.0,-999.0,-999,-99.99,,,-99.99,,2013-01-30 15:24:00,
2013-01-30 10:33:00,33.0,-99.9,29.34,North,-999,-999.0,-999.0,-999,-99.99,,,-99.99,,2013-01-30 15:33:00,
2013-01-30 10:43:00,33.0,-99.9,29.34,North,-999,-999.0,-999.0,-999,-99.99,,,-99.99,,2013-01-30 15:43:00,
2013-01-30 10:54:00,33.0,-99.9,29.36,North,-999,-999.0,-999.0,-999,-99.99,,,-99.99,,2013-01-30 15:54:00,
2013-01-30 11:03:00,34.0,-99.9,29.35,North,-999,-999.0,-999.0,-999,-99.99,,,-99.99,,2013-01-30 16:03:00,
2013-01-30 11:13:00,34.0,-99.9,29.35,NNW,348,7.0,13.0,-999,-99.99,,,-99.99,,2013-01-30 16:13:00,
2013-01-30 11:23:00,33.0,-99.9,29.34,North,-999,-999.0,-999.0,-999,-99.99,,,-99.99,,2013-01-30 16:23:00,
2013-01-30 11:33:00,33.0,-99.9,29.34,North,-999,-999.0,-999.0,-999,-99.99,,,-99.99,,2013-01-30 16:33:00,
2013-01-30 11:42:00,33.0,-99.9,29.34,North,354,7.0,10.0,-999,-99.99,,,-99.99,,2013-01-30 16:42:00,
2013-01-30 11:52:00,34.0,-99.9,29.34,North,-999,-999.0,-999.0,-999,-99.99,,,-99.99,,2013-01-30 16:52:00,
2013-01-30 12:03:00,34.0,-99.9,29.34,North,-999,-999.0,-999.0,-999,-99.99,,,-99.99,,2013-01-30 17:03:00,
2013-01-30 12:13:00,34.0,-99.9,29.34,North,-999,-999.0,-999.0,-999,-99.99,,,-99.99,,2013-01-30 17:13:00,
2013-01-30 12:23:00,33.0,-99.9,29.34,North,-999,-999.0,-999.0,-999,-99.99,,,-99.99,,2013-01-30 17:23:00,
2013-01-30 12:34:00,33.0,-99.9,29.33,North,-999,-999.0,-999.0,-999,-99.99,,,-99.99,,2013-01-30 17:34:00,
2013-01-30 12:43:00,33.0,-99.9,29.33,North,6,8.0,11.0,-999,-99.99,,,-99.99,,2013-01-30 17:43:00,
2013-01-30 12:53:00,32.0,-99.9,29.34,North,-999,-999.0,-999.0,-999,-99.99,,,-99.99,,2013-01-30 17:53:00,
2013-01-30 13:13:00,32.0,-99.9,29.31,North,-999,9.0,15.0,-999,-99.99,,,-99.99,,2013-01-30 18:13:00,
2013-01-30 13:43:00,31.0,-99.9,29.31,NNE,26,11.0,17.0,-999,-99.99,,,-99.99,,2013-01-30 18:43:00,
2013-01-30 14:13:00,31.0,-99.9,29.26,NNE,28,14.0,18.0,-999,-99.99,,,-99.99,,2013-01-30 19:13:00,
2013-01-30 15:12:00,29.0,-99.9,29.22,NNE,32,14.0,17.0,-999,-99.99,,,-99.99,,2013-01-30 20:12:00,
2013-01-30 15:42:00,28.0,-99.9,29.20,NNE,22,9.0,14.0,-999,-99.99,,,-99.99,,2013-01-30 20:42:00,
2013-01-30 16:43:00,27.0,-99.9,29.21,NE,35,11.0,15.0,-999,-99.99,,,-99.99,,2013-01-30 21:43:00,
2013-01-30 17:12:00,26.0,-99.9,29.21,North,11,10.0,15.0,-999,-99.99,,,-99.99,,2013-01-30 22:12:00,
2013-01-30 17:43:00,25.0,-99.9,29.21,North,11,12.0,17.0,-999,-99.99,,,-99.99,,2013-01-30 22:43:00,
2013-01-30 18:12:00,24.0,-99.9,29.23,NNE,31,11.0,15.0,-999,-99.99,,,-99.99,,2013-01-30 23:12:00,
2013-01-30 19:22:00,22.0,-99.9,29.19,NNE,24,16.0,23.0,-999,-99.99,,,-99.99,,2013-01-31 00:22:00,
2013-01-30 19:43:00,21.0,-99.9,29.18,NNE,21,17.0,22.0,-999,-99.99,,,-99.99,,2013-01-31 00:43:00,
2013-01-30 20:12:00,21.0,-99.9,29.17,NNE,19,10.0,22.0,-999,-99.99,,,-99.99,,2013-01-31 01:12:00,
2013-01-30 20:42:00,19.0,-99.9,29.16,North,10,13.0,24.0,-999,-99.99,,,-99.99,,2013-01-31 01:42:00,
2013-01-30 21:12:00,17.0,-99.9,29.18,NNE,20,14.0,19.0,-999,-99.99,,,-99.99,,2013-01-31 02:12:00,
2013-01-30 22:12:00,16.0,-99.9,29.17,NNE,21,11.0,17.0,-999,-99.99,,,-99.99,,2013-01-31 03:12:00,
2013-01-30 22:42:00,15.0,-99.9,29.19,NNE,12,12.0,17.0,-999,-99.99,,,-99.99,,2013-01-31 03:42:00,
2013-01-30 23:42:00,14.0,-99.9,29.18,NNW,345,12.0,18.0,-999,-99.99,,,-99.99,,2013-01-31 04:42:00,